Swansea, Tasmania

5:13 AM AEST on August 29, 2016 (GMT +1000)
The Grange Hills Swansea | | Change Station

Elev 79 ft 42.04 °S, 148.08 °E | Updated 1 minute ago

Clear
Clear
28.4 °F
Feels Like 28 °F
N
0.9
Wind Variable Wind from East
Gusts 1.0 mph

Today
High -- | Low -- °F
--% Chance of Precip.
Yesterday
High -- | Low -- °F
Precip. -- in
Pressure 30.18 in
Visibility -9999.0 miles
Clouds
Windchill 28 °F
Dew Point 26 °F
Humidity 92%
Rainfall 0.00 in
Snow Depth Not available.
6:38 AM 5:39 PM
Waning Crescent, 14% visible
METAR YMHB 281900Z 33007KT CAVOK 03/M00 Q1022
Pressure 30.18 in
Visibility -9999.0 miles
Clouds
Windchill 28 °F
Dew Point 26 °F
Humidity 92%
Rainfall 0.00 in
Snow Depth Not available.
6:38 AM 5:39 PM
Waning Crescent, 14% visible
METAR YMHB 281900Z 33007KT CAVOK 03/M00 Q1022

10-Day Weather Forecast

Almanac

Astronomy

Aug. 29, 2016 Rise Set
Actual Time
Civil Twilight
Nautical Twilight
Astronomical Twilight
Moon
Length of Visible Light
Length of Day
Tomorrow will be .
, % of the Moon is Illuminated

Today's Extremes

Country Highs Country Lows

Community

WunderPhotos

Upload Photos

1,935,660 photos uploaded!

WunderBlog® & News

Nearby

Air Quality

  Air Quality AQ Index Pollutant
Not available.

Snow Depth

Station Depth Elevation

Earthquake Activity

City Distance Mag. Time & Date
Minimum magnitude displayed is 2.5.

Coastal Water Temperatures

Place Temperature

Stations

Nearby Weather Stations

Station Location Temp. Windchill Dew Point Humidity Wind Precip. Elev Updated Type